Boulevard, California
Current Conditions -  °F | °C
As of 9:56 PM on Wednesday 22 Oct 2014 (Local Time) from KNJK Reporting Station
Few Clouds Few Clouds  
Wind Chill: 73°   Ceiling: Unl
Heat Index: 73°   Visibility: 10mi
Dew Point: 48°   Wind: 0mph
Humidity: 41%   Direction: NA
Pressure: 29.89"   Gusts: NA
Location:  32.66°N, 116.28°W
Report Text: KNJK 230456Z 00000KT 10SM FEW200 23/09 A2989 RMK AO2 SLP138 T02280089
Loading
Personal Weather Stations






























Interactive Weather Map
Tropical Storm Tracking
New forecast layout! Learn more

10-Day Weather Forecast

Advertisements
Track Severe Weather on mobile